Detall de PIREP

Printer-friendly versionPDF version

[2011/02/26 21:03:00]
Flight IATA:CT3107
Pilot Number:026
Company ICAO:CAT
Aircraft Type:DC85/A
PAX:132
Departing Airport: LEVC
Destination Airport: LIEA
Alternate Airport:LIEO
Online: VATSIM
Route:RIKOS UN733 MJV UN851 MHN UM603 MORSS UM603 ELSAG
Flight Level:F320
No Slew and time accel
No pause
Crash detect
Detect pilot in Cockpit between each 30 and 45 minutes
21:03 Zero fuel Weight: 177811 Lbs, Fuel Weight: 24001 Lbs
21:03 VATSIM:LEVC 262100Z 08003KT CAVOK 13/10 Q1022 NOSIG
21:03 VATSIM:LIEA 262050Z VRB01KT 9999 FEW040 05/03 Q1018
21:03 VOICE CATALONIAN / INTERHUB ROUTE CT3107
21:12 Parking Brakes off
21:21 Take-off
21:21 Take off Weight: 200472 Lbs
21:21 Wind: 083º @ 003 Knots Heading: 115º
21:21 POS N39º 29´ 16´´ W000º 28´ 41´´
21:21 Flaps:3 at 169 Knots
21:21 Gear Up: 171 Knots
21:22 Flaps:2 at 169 Knots
21:23 Flaps:1 at 167 Knots
21:23 Flaps:0 at 163 Knots
21:36 Wind:338º@008 Knots Heading: 089º Ground Speed: 408 Knots Altitude 24379 ft
21:44 TOC
21:44 Fuel Weight: 16159 Lb
21:51 Wind:289º@012 Knots Heading: 064º Ground Speed: 490 Knots Altitude 32217 ft
22:01 TOD
22:01 Fuel Weight: 11822 Lb
22:06 Wind:303º@011 Knots Heading: 073º Ground Speed: 457 Knots Altitude 26384 ft
22:21 Wind:304º@000 Knots Heading: 130º Ground Speed: 253 Knots Altitude 7988 ft
22:23 Gear Down: 255 Knots
22:23 Flaps:1 at 190 Knots
22:25 Flaps:2 at 149 Knots
22:25 Flaps:3 at 141 Knots
22:26 Flaps:4 at 138 Knots
22:26 Flaps:5 at 142 Knots
22:26 TouchDown:Rate -135 ft/min Speed: 120 Knots
22:27 VATSIM:LIEA 262150Z 00000KT 9999 FEW040 05/03 Q1018
22:27 Land
22:27 Wind:286º@000 Knots
22:27 Heading: 024º
22:27 Flight Duration: 01:06
22:27 Landing Weight: 186494 Lbs
22:27 POS N40º 37´ 47´´ E008º 17´ 22´´
22:30 Parking brakes on
22:30 Block to Block Duration: 01:18
22:30 Final Fuel: 8401 Lbls
22:30 Spent Fuel: 15599 Lbls
22:30 Flight Length: 426 NM
22:30 TOD Land Length: 151 NM

Exportar CSV

Powered by Drupal - Modified by Danger4k